createdAt,value
2023-01-30T00:02:42.368Z,6.40
2023-01-30T00:05:43.856Z,6.52
2023-01-30T00:08:45.761Z,6.54
2023-01-30T00:11:47.192Z,6.56
2023-01-30T00:14:48.630Z,6.65
2023-01-30T00:17:50.107Z,6.65
2023-01-30T00:21:03.064Z,6.66
2023-01-30T00:24:04.795Z,6.74
2023-01-30T00:27:06.281Z,6.71
2023-01-30T00:30:08.299Z,6.72
2023-01-30T00:33:10.377Z,6.70
2023-01-30T00:36:13.190Z,6.65
2023-01-30T00:39:14.778Z,6.72
2023-01-30T00:42:16.373Z,6.75
2023-01-30T00:45:18.196Z,6.73
2023-01-30T00:48:20.067Z,6.72
2023-01-30T00:51:21.517Z,6.69
2023-01-30T00:54:22.993Z,6.68
2023-01-30T00:57:26.480Z,6.74
2023-01-30T01:00:27.942Z,6.78
2023-01-30T01:03:29.567Z,6.76
2023-01-30T01:06:31.052Z,6.79
2023-01-30T01:09:32.518Z,6.74
2023-01-30T01:12:34.012Z,6.72
2023-01-30T01:15:35.687Z,6.75
2023-01-30T01:18:37.174Z,6.78
2023-01-30T01:21:38.889Z,6.71
2023-01-30T01:24:40.331Z,6.63
2023-01-30T01:27:43.093Z,6.63
2023-01-30T01:30:44.527Z,6.65
2023-01-30T01:33:46.000Z,6.66
2023-01-30T01:36:53.524Z,6.67
2023-01-30T01:39:56.060Z,6.61
2023-01-30T01:42:57.551Z,6.64
2023-01-30T01:46:17.133Z,6.65
2023-01-30T01:49:30.465Z,6.58
2023-01-30T01:52:32.181Z,6.35
2023-01-30T01:55:34.624Z,6.27
2023-01-30T01:58:42.795Z,6.15
2023-01-30T02:01:44.221Z,6.06
2023-01-30T02:04:51.924Z,6.02
2023-01-30T02:08:04.370Z,5.97
2023-01-30T02:11:29.387Z,5.92
2023-01-30T02:14:34.001Z,5.96
2023-01-30T02:17:35.506Z,5.93
2023-01-30T02:20:43.739Z,5.98
2023-01-30T02:24:09.940Z,5.97
2023-01-30T02:27:46.726Z,6.10
2023-01-30T02:31:07.289Z,6.13
2023-01-30T02:34:22.606Z,6.07
2023-01-30T02:37:42.706Z,6.15
2023-01-30T02:41:17.846Z,6.21
2023-01-30T02:44:45.016Z,6.25
2023-01-30T02:47:57.442Z,6.24
2023-01-30T02:51:04.476Z,6.20
2023-01-30T02:54:07.295Z,6.15
2023-01-30T02:57:23.242Z,6.13
2023-01-30T03:00:33.607Z,6.20
2023-01-30T03:03:45.885Z,6.25
2023-01-30T03:07:11.449Z,6.26
2023-01-30T03:10:18.664Z,6.26
2023-01-30T03:13:49.120Z,6.30
2023-01-30T03:16:55.190Z,6.28
2023-01-30T03:19:57.526Z,6.35
2023-01-30T03:22:58.992Z,6.38
2023-01-30T03:26:04.665Z,6.39
2023-01-30T03:29:06.469Z,6.42
2023-01-30T03:32:08.473Z,6.45
2023-01-30T03:35:10.005Z,6.42
2023-01-30T03:38:12.324Z,6.40
2023-01-30T03:41:13.780Z,6.40
2023-01-30T03:44:15.228Z,6.42
2023-01-30T03:47:17.465Z,6.53
2023-01-30T03:50:19.322Z,6.43
2023-01-30T03:53:21.033Z,6.42
2023-01-30T03:56:22.862Z,6.39
2023-01-30T03:59:24.436Z,6.42
2023-01-30T04:02:33.771Z,6.42
2023-01-30T04:05:36.042Z,6.41
2023-01-30T04:08:40.713Z,6.43
2023-01-30T04:11:44.823Z,6.34
2023-01-30T04:14:46.735Z,6.21
2023-01-30T04:18:06.730Z,6.15
2023-01-30T04:21:21.920Z,6.12
2023-01-30T04:24:23.388Z,6.13
2023-01-30T04:27:24.839Z,6.07
2023-01-30T04:30:41.619Z,6.10
2023-01-30T04:34:06.078Z,6.09
2023-01-30T04:37:07.557Z,6.15
2023-01-30T04:40:09.699Z,6.23
2023-01-30T04:43:11.429Z,6.39
2023-01-30T04:46:32.891Z,6.50
2023-01-30T04:49:34.478Z,6.48
2023-01-30T04:52:39.627Z,6.54
2023-01-30T04:55:42.471Z,6.53
2023-01-30T04:58:44.005Z,6.52
2023-01-30T05:01:47.204Z,6.45
2023-01-30T05:04:49.771Z,6.39
2023-01-30T05:07:51.624Z,6.33
2023-01-30T05:10:53.090Z,6.26
2023-01-30T05:13:54.770Z,6.15
2023-01-30T05:16:56.254Z,6.11
2023-01-30T05:19:57.751Z,5.89
2023-01-30T05:22:59.219Z,5.94
2023-01-30T05:26:01.245Z,5.84
2023-01-30T05:29:02.711Z,5.67
2023-01-30T05:32:04.598Z,5.61
2023-01-30T05:35:06.731Z,5.58
2023-01-30T05:38:08.194Z,5.58
2023-01-30T05:41:11.197Z,5.45
2023-01-30T05:44:12.798Z,5.51
2023-01-30T05:47:14.262Z,5.43
2023-01-30T05:50:15.978Z,5.33
2023-01-30T05:53:18.569Z,5.32
2023-01-30T05:56:20.317Z,5.28
2023-01-30T05:59:21.828Z,5.23
2023-01-30T06:02:23.316Z,5.17
2023-01-30T06:05:24.824Z,5.08
2023-01-30T06:08:26.287Z,5.16
2023-01-30T06:11:27.849Z,5.09
2023-01-30T06:14:29.362Z,5.00
2023-01-30T06:17:30.840Z,4.96
2023-01-30T06:20:32.546Z,4.92
2023-01-30T06:23:34.531Z,5.01
2023-01-30T06:26:36.047Z,4.97
2023-01-30T06:29:37.536Z,5.03
2023-01-30T06:32:39.062Z,5.04
2023-01-30T06:35:41.826Z,4.93
2023-01-30T06:38:43.306Z,4.94
2023-01-30T06:41:44.754Z,4.98
2023-01-30T06:44:46.289Z,5.18
2023-01-30T06:47:49.878Z,5.20
2023-01-30T06:50:51.298Z,5.16
2023-01-30T06:53:53.442Z,5.11
2023-01-30T06:56:54.925Z,4.95
2023-01-30T06:59:56.392Z,4.91
2023-01-30T07:02:58.575Z,4.86
2023-01-30T07:06:00.023Z,4.89
2023-01-30T07:09:01.614Z,4.84
2023-01-30T07:12:03.336Z,4.87
2023-01-30T07:15:06.283Z,4.95
2023-01-30T07:18:07.894Z,4.95
2023-01-30T07:21:09.382Z,4.81
2023-01-30T07:24:10.930Z,4.89
2023-01-30T07:27:13.414Z,4.85
2023-01-30T07:30:15.145Z,4.91
2023-01-30T07:33:16.726Z,4.90
2023-01-30T07:36:18.227Z,4.99
2023-01-30T07:39:19.803Z,4.87
2023-01-30T07:42:21.343Z,4.88
2023-01-30T07:45:22.804Z,4.98
2023-01-30T07:48:24.316Z,4.98
2023-01-30T07:51:25.785Z,4.83
2023-01-30T07:54:27.249Z,5.00
2023-01-30T07:57:29.957Z,4.91
2023-01-30T08:00:32.094Z,4.97
2023-01-30T08:03:33.693Z,4.96
2023-01-30T08:06:35.387Z,5.01
2023-01-30T08:09:36.894Z,5.15
2023-01-30T08:12:40.041Z,5.14
2023-01-30T08:15:41.530Z,5.11
2023-01-30T08:18:43.026Z,5.10
2023-01-30T08:21:44.542Z,5.12
2023-01-30T08:24:46.043Z,5.19
2023-01-30T08:27:47.621Z,5.24
2023-01-30T08:30:49.241Z,5.27
2023-01-30T08:33:50.799Z,5.33
2023-01-30T08:36:52.326Z,5.33
2023-01-30T08:39:53.862Z,5.33
2023-01-30T08:42:55.310Z,5.30
2023-01-30T08:45:57.039Z,5.47
2023-01-30T08:48:58.473Z,5.64
2023-01-30T08:51:59.972Z,5.67
2023-01-30T08:55:01.560Z,5.76
2023-01-30T08:58:03.153Z,5.73
2023-01-30T09:01:06.647Z,5.76
2023-01-30T09:04:17.303Z,5.87
2023-01-30T09:07:24.970Z,6.04
2023-01-30T09:10:26.633Z,6.05
2023-01-30T09:13:28.289Z,6.04
2023-01-30T09:16:29.919Z,6.14
2023-01-30T09:19:31.652Z,6.11
2023-01-30T09:22:33.222Z,6.14
2023-01-30T09:25:34.733Z,6.17
2023-01-30T09:28:36.302Z,6.14
2023-01-30T09:31:38.323Z,6.11
2023-01-30T09:34:45.650Z,6.19
2023-01-30T09:37:52.392Z,6.17
2023-01-30T09:40:59.805Z,6.23
2023-01-30T09:44:19.758Z,6.27
2023-01-30T09:47:44.307Z,6.30
2023-01-30T09:51:14.262Z,6.28
2023-01-30T09:54:31.730Z,6.47
2023-01-30T09:57:33.201Z,6.56
2023-01-30T10:00:40.329Z,6.65
2023-01-30T10:04:13.931Z,6.63
2023-01-30T10:07:41.092Z,6.58
2023-01-30T10:11:00.829Z,6.62
2023-01-30T10:14:15.208Z,6.53
2023-01-30T10:17:35.418Z,6.65
2023-01-30T10:20:52.514Z,6.65
2023-01-30T10:24:24.267Z,6.57
2023-01-30T10:27:30.673Z,6.83
2023-01-30T10:30:33.897Z,7.03
2023-01-30T10:34:04.548Z,6.88
2023-01-30T10:37:22.906Z,6.88
2023-01-30T10:40:46.191Z,6.86
2023-01-30T10:43:57.572Z,6.84
2023-01-30T10:47:14.322Z,6.84
2023-01-30T10:50:28.245Z,6.83
2023-01-30T10:53:41.045Z,6.75
2023-01-30T10:56:47.457Z,6.83
2023-01-30T11:00:17.386Z,6.86
2023-01-30T11:03:26.210Z,6.93
2023-01-30T11:06:28.030Z,6.95
2023-01-30T11:09:46.386Z,6.83
2023-01-30T11:12:52.444Z,6.78
2023-01-30T11:15:57.958Z,6.87
2023-01-30T11:19:22.214Z,6.90
2023-01-30T11:22:25.622Z,7.14
2023-01-30T11:25:27.054Z,7.14
2023-01-30T11:28:42.668Z,7.21
2023-01-30T11:31:50.426Z,7.47
2023-01-30T11:35:07.083Z,7.30
2023-01-30T11:38:24.730Z,7.01
2023-01-30T11:41:26.718Z,7.06
2023-01-30T11:44:30.393Z,7.09
2023-01-30T11:47:31.829Z,7.17
2023-01-30T11:50:49.959Z,7.21
2023-01-30T11:54:07.643Z,7.28
2023-01-30T11:57:15.553Z,7.18
2023-01-30T12:00:21.651Z,7.18
2023-01-30T12:03:23.981Z,7.32
2023-01-30T12:06:40.816Z,7.32
2023-01-30T12:09:42.489Z,7.45
2023-01-30T12:12:49.523Z,7.17
2023-01-30T12:16:02.231Z,7.21
2023-01-30T12:19:31.745Z,7.39
2023-01-30T12:22:46.548Z,7.37
2023-01-30T12:26:00.759Z,7.34
2023-01-30T12:29:23.697Z,7.28
2023-01-30T12:32:31.958Z,7.23
2023-01-30T12:35:59.987Z,7.34
2023-01-30T12:39:32.618Z,7.30
2023-01-30T12:42:55.587Z,7.34
2023-01-30T12:46:34.451Z,7.33
2023-01-30T12:50:10.404Z,7.42
2023-01-30T12:53:36.370Z,7.47
2023-01-30T12:56:42.484Z,7.50
2023-01-30T13:00:06.668Z,7.47
2023-01-30T13:03:26.869Z,7.43
2023-01-30T13:06:48.425Z,7.48
2023-01-30T13:10:02.469Z,7.38
2023-01-30T13:13:14.591Z,7.45
2023-01-30T13:16:35.165Z,7.65
2023-01-30T13:19:57.314Z,7.79
2023-01-30T13:23:20.273Z,7.68
2023-01-30T13:26:27.886Z,7.58
2023-01-30T13:29:35.566Z,7.51
2023-01-30T13:32:45.084Z,7.38
2023-01-30T13:36:10.908Z,7.32
2023-01-30T13:42:44.687Z,7.28
2023-01-30T13:45:48.210Z,7.26
2023-01-30T13:49:05.464Z,7.14
2023-01-30T13:52:23.161Z,7.25
2023-01-30T13:55:43.078Z,7.16
2023-01-30T13:58:55.458Z,7.19
2023-01-30T14:02:00.042Z,7.19
2023-01-30T14:05:01.562Z,7.01
2023-01-30T14:08:11.912Z,6.80
2023-01-30T14:11:34.376Z,6.75
2023-01-30T14:14:36.374Z,6.85
2023-01-30T14:17:37.977Z,7.02
2023-01-30T14:20:50.944Z,7.12
2023-01-30T14:24:01.250Z,7.31
2023-01-30T14:27:04.401Z,7.17
2023-01-30T14:30:31.810Z,7.18
2023-01-30T14:33:49.001Z,7.10
2023-01-30T14:36:52.603Z,7.18
2023-01-30T14:39:55.804Z,7.11
2023-01-30T14:43:12.493Z,7.21
2023-01-30T14:46:16.971Z,7.12
2023-01-30T14:49:24.647Z,7.03
2023-01-30T14:52:42.365Z,6.98
2023-01-30T14:55:43.954Z,7.10
2023-01-30T14:59:02.633Z,7.01
2023-01-30T15:02:13.453Z,6.96
2023-01-30T15:05:27.139Z,7.03
2023-01-30T15:08:28.930Z,6.96
2023-01-30T15:11:34.537Z,6.83
2023-01-30T15:14:55.535Z,6.83
2023-01-30T15:18:15.254Z,6.76
2023-01-30T15:21:36.318Z,6.74
2023-01-30T15:24:46.127Z,6.78
2023-01-30T15:28:19.584Z,6.79
2023-01-30T15:31:23.401Z,6.72
2023-01-30T15:34:30.610Z,6.70
2023-01-30T15:37:34.205Z,6.71
2023-01-30T15:40:40.147Z,6.71
2023-01-30T15:43:56.778Z,6.70
2023-01-30T15:47:30.277Z,6.74
2023-01-30T15:50:31.926Z,6.66
2023-01-30T15:53:42.260Z,6.56
2023-01-30T15:56:48.771Z,6.42
2023-01-30T15:59:54.181Z,6.33
2023-01-30T16:02:57.160Z,6.24
2023-01-30T16:05:58.657Z,6.19
2023-01-30T16:09:03.330Z,6.18
2023-01-30T16:12:04.970Z,6.09
2023-01-30T16:15:32.179Z,6.07
2023-01-30T16:18:46.217Z,6.05
2023-01-30T16:22:01.984Z,6.07
2023-01-30T16:25:27.647Z,5.99
2023-01-30T16:28:30.958Z,6.02
2023-01-30T16:31:38.700Z,6.10
2023-01-30T16:34:40.525Z,6.18
2023-01-30T16:37:42.477Z,6.14
2023-01-30T16:40:45.989Z,6.11
2023-01-30T16:44:26.448Z,6.17
2023-01-30T16:47:29.152Z,6.12
2023-01-30T16:50:30.626Z,6.02
2023-01-30T16:53:33.659Z,5.99
2023-01-30T16:56:35.326Z,6.01
2023-01-30T16:59:37.262Z,5.95
2023-01-30T17:02:47.837Z,6.08
2023-01-30T17:05:50.345Z,5.98
2023-01-30T17:08:54.247Z,5.95
2023-01-30T17:11:55.722Z,6.03
2023-01-30T17:15:09.371Z,5.99
2023-01-30T17:18:10.851Z,6.03
2023-01-30T17:21:14.259Z,5.95
2023-01-30T17:24:19.358Z,5.85
2023-01-30T17:27:28.455Z,5.76
2023-01-30T17:30:30.097Z,5.59
2023-01-30T17:33:31.530Z,5.59
2023-01-30T17:36:33.128Z,5.57
2023-01-30T17:39:34.567Z,5.55
2023-01-30T17:42:35.986Z,5.54
2023-01-30T17:45:37.522Z,5.46
2023-01-30T17:48:39.327Z,5.41
2023-01-30T17:51:40.992Z,5.29
2023-01-30T17:54:42.485Z,5.19
2023-01-30T17:57:47.656Z,5.12
2023-01-30T18:00:49.469Z,5.01
2023-01-30T18:03:50.955Z,4.94
2023-01-30T18:06:54.866Z,4.94
2023-01-30T18:09:56.341Z,4.74
2023-01-30T18:12:57.831Z,4.97
2023-01-30T18:15:59.250Z,5.16
2023-01-30T18:19:02.894Z,5.06
2023-01-30T18:22:04.372Z,4.92
2023-01-30T18:25:06.508Z,4.79
2023-01-30T18:28:10.584Z,4.63
2023-01-30T18:31:12.479Z,4.61
2023-01-30T18:34:14.149Z,4.59
2023-01-30T18:37:15.615Z,4.58
2023-01-30T18:40:18.821Z,4.50
2023-01-30T18:43:21.930Z,4.26
2023-01-30T18:46:24.727Z,4.04
2023-01-30T18:49:26.329Z,4.00
2023-01-30T18:52:27.814Z,4.00
2023-01-30T18:55:29.334Z,4.04
2023-01-30T18:58:31.996Z,4.04
2023-01-30T19:01:38.747Z,3.91
2023-01-30T19:04:40.578Z,3.84
2023-01-30T19:07:42.063Z,3.74
2023-01-30T19:10:43.601Z,3.53
2023-01-30T19:13:45.044Z,3.53
2023-01-30T19:16:47.074Z,3.47
2023-01-30T19:19:48.537Z,3.45
2023-01-30T19:22:50.039Z,3.50
2023-01-30T19:25:56.138Z,3.37
2023-01-30T19:28:57.680Z,3.35
2023-01-30T19:32:01.991Z,3.28
2023-01-30T19:35:07.541Z,3.25
2023-01-30T19:38:10.636Z,3.28
2023-01-30T19:41:23.580Z,3.26
2023-01-30T19:44:25.051Z,3.27
2023-01-30T19:47:29.763Z,3.34
2023-01-30T19:50:41.415Z,3.26
2023-01-30T19:53:45.283Z,3.17
2023-01-30T19:56:46.940Z,3.01
2023-01-30T19:59:48.404Z,2.99
2023-01-30T20:02:54.295Z,3.04
2023-01-30T20:06:06.975Z,3.03
2023-01-30T20:09:09.003Z,3.02
2023-01-30T20:12:10.697Z,3.11
2023-01-30T20:15:12.202Z,3.01
2023-01-30T20:18:14.555Z,2.98
2023-01-30T20:22:03.817Z,2.98
2023-01-30T20:25:06.591Z,2.94
2023-01-30T20:28:08.088Z,2.83
2023-01-30T20:31:15.842Z,2.98
2023-01-30T20:34:22.531Z,3.17
2023-01-30T20:37:24.238Z,3.17
2023-01-30T20:40:25.681Z,3.09
2023-01-30T20:43:30.868Z,3.03
2023-01-30T20:46:37.584Z,2.96
2023-01-30T20:49:39.556Z,3.01
2023-01-30T20:52:51.439Z,3.17
2023-01-30T20:56:00.667Z,3.29
2023-01-30T20:59:04.770Z,3.28
2023-01-30T21:02:06.323Z,3.25
2023-01-30T21:05:08.102Z,3.27
2023-01-30T21:08:09.655Z,3.23
2023-01-30T21:11:16.874Z,3.29
2023-01-30T21:14:18.728Z,3.18
2023-01-30T21:17:20.180Z,3.07
2023-01-30T21:20:21.873Z,2.96
2023-01-30T21:23:23.397Z,2.95
2023-01-30T21:26:27.899Z,2.95
2023-01-30T21:29:29.576Z,2.91
2023-01-30T21:32:31.037Z,2.88
2023-01-30T21:35:32.550Z,2.72
2023-01-30T21:38:34.535Z,2.68
2023-01-30T21:41:38.184Z,2.79
2023-01-30T21:44:40.183Z,2.73
2023-01-30T21:47:47.433Z,2.74
2023-01-30T21:50:50.028Z,2.65
2023-01-30T21:53:55.241Z,2.63
2023-01-30T21:56:57.003Z,2.60
2023-01-30T21:59:58.453Z,2.55
2023-01-30T22:02:59.908Z,2.58
2023-01-30T22:06:01.611Z,2.53
2023-01-30T22:09:04.819Z,2.52
2023-01-30T22:12:06.375Z,2.31
2023-01-30T22:15:09.185Z,2.29
2023-01-30T22:18:10.736Z,2.27
2023-01-30T22:21:18.534Z,2.34
2023-01-30T22:24:20.036Z,2.36
2023-01-30T22:27:21.529Z,2.40
2023-01-30T22:30:22.983Z,2.28
2023-01-30T22:33:24.432Z,2.12
2023-01-30T22:36:28.443Z,2.15
2023-01-30T22:39:29.950Z,2.14
2023-01-30T22:42:31.411Z,2.15
2023-01-30T22:45:36.117Z,2.17
2023-01-30T22:48:38.347Z,2.04
2023-01-30T22:51:41.179Z,2.04
2023-01-30T22:54:42.718Z,1.97
2023-01-30T22:57:44.261Z,1.83
2023-01-30T23:00:45.714Z,1.91
2023-01-30T23:03:51.820Z,1.76
2023-01-30T23:06:53.248Z,1.69
2023-01-30T23:09:54.700Z,1.59
2023-01-30T23:12:56.143Z,1.72
2023-01-30T23:16:05.113Z,1.66
2023-01-30T23:19:07.917Z,1.72
2023-01-30T23:22:09.434Z,1.69
2023-01-30T23:25:10.858Z,1.65
2023-01-30T23:28:12.343Z,1.59
2023-01-30T23:31:16.963Z,1.64
2023-01-30T23:34:19.298Z,1.68
2023-01-30T23:37:20.782Z,1.82
2023-01-30T23:40:22.279Z,1.89
2023-01-30T23:43:23.859Z,1.90
2023-01-30T23:46:26.581Z,1.94
2023-01-30T23:49:28.026Z,1.97
2023-01-30T23:52:29.447Z,1.92
2023-01-30T23:55:32.553Z,1.95
2023-01-30T23:58:36.495Z,1.80
